7TA8 weather

CLOSED John Henry Key Airport
Boerne, Texas, United States

Public forecast

Using degrees Fahrenheit for public forecast. Weather courtesy of forecast.io.

METAR (pilot weather report)

Closest report is Boerne Stage Field, 8.5 nm (15.8 km) SSE. Retrieved 2019/09/23 10:35 UTC (0 seconds ago):

K5C1 231035Z AUTO 18003KT 10SM SCT013 OVC022 23/23 A3006 RMK AO1

TAF (pilot weather forecast)

Closest forecast is San Antonio International Airport, 24.2 nm (44.7 km) SE. Retrieved 2019/09/23 06:27 UTC (4 hours ago):

TAF KSAT 230525Z 2306/2412 14010KT P6SM SCT070 FM231000 14005KT P6SM BKN012 TEMPO 2311/2313 BKN009 FM231400 16005KT P6SM BKN020 FM231600 16008KT P6SM SCT040 FM241000 16005KT P6SM BKN015